Hauptseite
METAR-TAF:

METAR-TAF

Flughäfen :

Nouakchott, Mauretanien

Flughafen Nouakchott-Oumtounsy

Breite: 18-18-36N, Länge: 015-58-11W, Höhe: 3 m

Beobachtung

Neuester Wetterbericht von vor 22 Minuten, um 18:00 UTC
Wind 17 kt aus Nordwest
Temperatur 23°C
Luftfeuchtigkeit 57%
Luftdruck 1010 hPa
Sichtweite 10 km oder mehr
keine Wolken unter 1500 m und keine Kumulonimbus oder Gewitterwolken

METAR: GQNO 221800Z 32017KT CAVOK 23/14 Q1010 NOSIG

Zeit: 18:22 (18:22 UTC)

Prognose

Neuester Wetterbericht von vor 7 Stunden und 22 Minuten, um 11:00 UTC
Gültige Prognose vom 22 um 12 UTC bis 23 um 18 UTC
Wind 12 kt aus Nord/Nordwest
Sichtweite: 7000 m
Wahrscheinlichkeit 30% :
Zeitweise
vom 22 um 15 UTC bis 22 um 18 UTC
Sichtweite: 4000 m
Staubtreiben

TAF: GQNO 221100Z 2212/2318 34012KT 7000 NSC PROB30 TEMPO 2215/2218 4000 BLDU

Wetterbeobachtungen und Prognosen von mehr als 4000 Flughäfen (METAR und TAF Bericht).

Die verfügbaren Stationen werden durch gelbe und rote Markierungen auf der Karte dargestellt.

Führen Sie die Maus auf sie, um den Namen der Station zu sehen.

Darauf klicken, um die Beobachtung von Wetterbeobachtungen und Prognosen zu sehen.

Um die Karte zu ändern : klicken Sie auf den grünen Tasten mit einem schwarzen Kreuz Zum Vergrößern, auf den grünen Button mit einem Gedankenstrich zu verkleinern, oder auf die grünen Pfeile für benachbarte Karten.


METAR-TAF: